UZ-0038 weather

Ostrov Vozrozhdeniya Southwest Airport
Kantubek, Qoraqalpogiston Respublikasi, Uzbekistan

Public forecast

Using degrees Celsius for public forecast. Weather courtesy of forecast.io.

Closest aviation weather report (METAR) to Ostrov Vozrozhdeniya Southwest Airport

Closest report is Nukus Airport, 157.2 nm (291.1 km) S. Retrieved 2020/07/07 11:00 UTC (11 minutes ago):

UTNN 071100Z 29010KT CAVOK 38/06 Q1006 R33/CLRD60 NOSIG

Closest aviation forecast (TAF) to Ostrov Vozrozhdeniya Southwest Airport

Closest forecast is Nukus Airport, 157.2 nm (291.1 km) S. Retrieved 2020/07/07 06:09 UTC (5 hours ago):

TAF TAF UTNN 070500Z 0706/0806 34010G20KT CAVOK TEMPO 0718/0804 VRB04KT